METAR AND TAF INFORMATION
METAR FOR YCOM
ADDS - METARS form results

(1446 UTC 24 September 2020)
Data provider http://aviationweather.gov/metar/data/
 
METAR text: YCOM 241400Z AUTO 00000KT 9999 // SCT058 02/M04 Q1009
Conditions at: YCOM (COOMA SNOWY MTNS, AU) observed 1400 UTC 24 September 2020
Temperature: 2.0°C (36°F)
Dewpoint: -4.0°C (25°F) [RH = 64%]
Pressure (altimeter): 29.79 inches Hg (1009.0 mb)
Winds: calm
Visibility: 6 or more miles (10+ km)
Ceiling: at least 12,000 feet AGL
Clouds: scattered clouds at 5800 feet AGL
Weather: no significant weather observed at this time

 AIRPORT MAP

 RUNWAY INFORMATION
Runway 14 Runway length 2041 ft Runway width 59 ft
Runway elevation 3073 ft Runway displaced threshold 0 ft Runway heading 150
Runway 32 Runway length 2041 ft Runway width 59 ft
Runway elevation 3106 ft Runway displaced threshold 0 ft Runway heading 330
Runway 18 Runway length 6955 ft Runway width 148 ft
Runway elevation 3049 ft Runway displaced threshold 233 ft Runway heading 193
Runway 36 Runway length 6955 ft Runway width 148 ft
Runway elevation 3088 ft Runway displaced threshold 0 ft Runway heading 13

 AIRPORT FREQUENCIES
Type CTAF Name CTAF Frequency 118.1 MHZ
Type FSS Name MELBOURNE Frequency 119.4 MHZ

 AIRPORT NEAR NAVIGATION AIDS
Type NDB-DME Name Cooma Frequency 293 KHZ



Powered by Virtual Airlines Manager [v2.6.2]